TimePST,TemperatureF,Dew PointF,Humidity,Sea Level PressureIn,VisibilityMPH,Wind Direction,Wind SpeedMPH,Gust SpeedMPH,PrecipitationIn,Events,Conditions,WindDirDegrees,DateUTC
12:45 AM,-0.0,-4.0,83,30.49,10.0,Calm,Calm,-,N/A,,Partly Cloudy,0,2013-12-16 08:45:00
12:56 AM,-0.0,-2.9,88,30.65,10.0,Calm,Calm,-,N/A,,Mostly Cloudy,0,2013-12-16 08:56:00
1:32 AM,-0.9,-4.0,87,30.50,1.5,Calm,Calm,-,N/A,,Overcast,0,2013-12-16 09:32:00
1:34 AM,-2.0,-4.0,91,30.50,0.8,SSW,3.5,-,N/A,,Mist,200,2013-12-16 09:34:00
1:46 AM,-0.9,-0.9,100,30.50,0.2,SSE,5.8,-,N/A,Fog,Light Freezing Fog,150,2013-12-16 09:46:00
1:56 AM,-0.0,-0.0,100,30.66,0.2,ESE,4.6,-,N/A,Fog,Light Freezing Fog,120,2013-12-16 09:56:00
2:15 AM,3.0,1.0,91,30.50,0.5,East,5.8,-,N/A,Fog,Light Freezing Fog,80,2013-12-16 10:15:00
2:34 AM,3.0,-0.9,84,30.51,0.2,ESE,4.6,-,N/A,Fog,Light Freezing Fog,120,2013-12-16 10:34:00
2:56 AM,3.0,-0.9,84,30.65,0.5,NNW,3.5,-,N/A,Fog,Light Freezing Fog,340,2013-12-16 10:56:00
3:18 AM,3.0,-2.0,80,30.51,0.2,Calm,Calm,-,N/A,,Haze,0,2013-12-16 11:18:00
3:56 AM,1.9,-2.0,83,30.67,0.2,Calm,Calm,-,N/A,Fog,Light Freezing Fog,0,2013-12-16 11:56:00
4:09 AM,3.0,-2.0,80,30.50,0.8,ENE,3.5,-,N/A,,Haze,60,2013-12-16 12:09:00
4:13 AM,3.9,-0.9,80,30.50,1.5,ENE,3.5,-,N/A,,Haze,60,2013-12-16 12:13:00
4:23 AM,5.0,-0.0,80,30.50,1.0,Calm,Calm,-,N/A,,Haze,0,2013-12-16 12:23:00
4:27 AM,5.0,-0.9,76,30.50,2.0,Calm,Calm,-,N/A,,Haze,0,2013-12-16 12:27:00
4:36 AM,3.9,-2.0,76,30.51,5.0,Calm,Calm,-,N/A,,Haze,0,2013-12-16 12:36:00
4:56 AM,3.9,-0.9,80,30.69,6.0,Calm,Calm,-,N/A,,Haze,0,2013-12-16 12:56:00
5:03 AM,3.0,-2.9,76,30.51,6.0,Calm,Calm,-,N/A,,Haze,0,2013-12-16 13:03:00
5:20 AM,3.9,-2.0,76,30.51,6.0,North,4.6,-,N/A,,Haze,10,2013-12-16 13:20:00
5:56 AM,3.0,-2.9,76,30.70,6.0,Calm,Calm,-,N/A,,Haze,0,2013-12-16 13:56:00
6:26 AM,1.0,-5.1,75,30.51,7.0,Calm,Calm,-,N/A,,Scattered Clouds,0,2013-12-16 14:26:00
6:43 AM,-0.0,-5.1,79,30.51,2.5,South,3.5,-,N/A,,Haze,180,2013-12-16 14:43:00
6:45 AM,1.4,-5.8,72,30.14,5.0,Calm,Calm,-,N/A,Snow,Light Snow,0,2013-12-16 14:45:00
6:47 AM,1.0,-4.0,79,30.51,1.2,South,3.5,-,N/A,,Haze,180,2013-12-16 14:47:00
6:56 AM,1.0,-2.9,83,30.72,0.5,South,3.5,-,N/A,Fog,Light Freezing Fog,170,2013-12-16 14:56:00
7:08 AM,1.9,-2.9,80,30.51,0.2,Calm,Calm,-,N/A,,Haze,0,2013-12-16 15:08:00
7:20 AM,1.9,-2.9,80,30.52,1.0,NNW,3.5,-,N/A,,Haze,340,2013-12-16 15:20:00
7:28 AM,1.9,-2.9,80,30.52,2.0,NNE,4.6,-,N/A,,Haze,20,2013-12-16 15:28:00
7:46 AM,3.9,-2.0,76,30.52,6.0,Calm,Calm,-,N/A,,Haze,0,2013-12-16 15:46:00
7:56 AM,6.1,-2.0,69,30.73,7.0,Calm,Calm,-,N/A,,Partly Cloudy,0,2013-12-16 15:56:00
8:56 AM,15.1,7.0,70,30.73,6.0,Calm,Calm,-,N/A,,Haze,0,2013-12-16 16:56:00
9:45 AM,17.6,6.8,63,30.08,10.0,SSW,8.1,-,N/A,,Clear,200,2013-12-16 17:45:00
9:56 AM,18.0,9.0,68,30.73,10.0,NNE,4.6,-,N/A,,Clear,20,2013-12-16 17:56:00
10:56 AM,19.9,12.9,74,30.71,9.0,NNE,6.9,-,0.00,,Clear,20,2013-12-16 18:56:00
11:56 AM,21.9,15.1,75,30.68,10.0,NNE,8.1,-,N/A,,Clear,30,2013-12-16 19:56:00
12:56 PM,25.0,17.1,72,30.65,10.0,NNE,6.9,-,N/A,,Clear,20,2013-12-16 20:56:00
1:56 PM,27.0,18.0,69,30.63,10.0,NNE,6.9,-,N/A,,Clear,30,2013-12-16 21:56:00
2:56 PM,27.0,19.0,72,30.63,10.0,NNE,9.2,-,N/A,,Clear,30,2013-12-16 22:56:00
3:56 PM,26.1,19.0,75,30.63,10.0,NNE,5.8,-,N/A,,Clear,30,2013-12-16 23:56:00
4:56 PM,21.0,16.0,81,30.63,10.0,ENE,6.9,-,N/A,,Clear,70,2013-12-17 00:56:00
5:56 PM,15.1,12.9,91,30.65,9.0,ESE,6.9,-,N/A,,Clear,110,2013-12-17 01:56:00
6:56 PM,18.0,16.0,92,30.64,10.0,ESE,6.9,-,N/A,,Clear,120,2013-12-17 02:56:00
7:56 PM,12.0,10.0,92,30.65,9.0,West,4.6,-,N/A,,Clear,280,2013-12-17 03:56:00
8:56 PM,7.0,5.0,92,30.65,10.0,SE,4.6,-,N/A,,Clear,130,2013-12-17 04:56:00
9:56 PM,6.1,5.0,95,30.65,10.0,SE,4.6,-,N/A,,Clear,140,2013-12-17 05:56:00
10:56 PM,3.0,1.9,95,30.66,10.0,WNW,3.5,-,N/A,,Clear,300,2013-12-17 06:56:00
11:56 PM,3.0,-0.0,87,30.64,10.0,SSE,3.5,-,N/A,,Clear,150,2013-12-17 07:56:00